sensor_id;sensor_type;location;lat;lon;timestamp;P1;durP1;ratioP1;P2;durP2;ratioP2
46040;SDS011;31779;49.124;19.190;2022-10-31T00:01:38;45.03;;;28.20;;
46040;SDS011;31779;49.124;19.190;2022-10-31T00:04:08;79.82;;;34.33;;
46040;SDS011;31779;49.124;19.190;2022-10-31T00:06:37;44.78;;;24.42;;
46040;SDS011;31779;49.124;19.190;2022-10-31T00:09:05;99.95;;;30.08;;
46040;SDS011;31779;49.124;19.190;2022-10-31T00:11:33;30.13;;;19.60;;
46040;SDS011;31779;49.124;19.190;2022-10-31T00:14:01;65.35;;;29.77;;
46040;SDS011;31779;49.124;19.190;2022-10-31T00:16:30;38.35;;;24.25;;
46040;SDS011;31779;49.124;19.190;2022-10-31T00:18:58;40.47;;;24.27;;
46040;SDS011;31779;49.124;19.190;2022-10-31T00:21:28;45.45;;;26.60;;
46040;SDS011;31779;49.124;19.190;2022-10-31T00:23:57;110.63;;;30.65;;
46040;SDS011;31779;49.124;19.190;2022-10-31T00:26:30;48.80;;;23.95;;
46040;SDS011;31779;49.124;19.190;2022-10-31T00:28:58;56.85;;;27.15;;
46040;SDS011;31779;49.124;19.190;2022-10-31T00:31:27;63.33;;;23.77;;
46040;SDS011;31779;49.124;19.190;2022-10-31T00:33:55;57.38;;;25.30;;
46040;SDS011;31779;49.124;19.190;2022-10-31T00:36:26;50.03;;;26.00;;
46040;SDS011;31779;49.124;19.190;2022-10-31T00:38:53;60.15;;;24.33;;
46040;SDS011;31779;49.124;19.190;2022-10-31T00:41:23;51.90;;;24.83;;
46040;SDS011;31779;49.124;19.190;2022-10-31T00:43:51;78.07;;;26.50;;
46040;SDS011;31779;49.124;19.190;2022-10-31T00:46:19;59.08;;;22.58;;
46040;SDS011;31779;49.124;19.190;2022-10-31T00:48:49;80.22;;;25.55;;
46040;SDS011;31779;49.124;19.190;2022-10-31T00:51:44;38.47;;;21.83;;
46040;SDS011;31779;49.124;19.190;2022-10-31T00:54:24;37.95;;;22.83;;
46040;SDS011;31779;49.124;19.190;2022-10-31T00:57:12;38.65;;;23.80;;
46040;SDS011;31779;49.124;19.190;2022-10-31T00:59:46;65.00;;;30.35;;
46040;SDS011;31779;49.124;19.190;2022-10-31T01:02:34;60.22;;;25.25;;
46040;SDS011;31779;49.124;19.190;2022-10-31T01:05:02;36.53;;;24.85;;
46040;SDS011;31779;49.124;19.190;2022-10-31T01:07:31;45.58;;;23.95;;
46040;SDS011;31779;49.124;19.190;2022-10-31T01:09:59;67.57;;;25.52;;
46040;SDS011;31779;49.124;19.190;2022-10-31T01:12:27;26.35;;;20.90;;
46040;SDS011;31779;49.124;19.190;2022-10-31T01:14:57;55.08;;;21.50;;
46040;SDS011;31779;49.124;19.190;2022-10-31T01:17:25;44.70;;;22.88;;
46040;SDS011;31779;49.124;19.190;2022-10-31T01:19:53;56.30;;;24.52;;
46040;SDS011;31779;49.124;19.190;2022-10-31T01:22:21;61.35;;;27.98;;
46040;SDS011;31779;49.124;19.190;2022-10-31T01:24:49;56.20;;;24.42;;
46040;SDS011;31779;49.124;19.190;2022-10-31T01:27:18;88.68;;;27.55;;
46040;SDS011;31779;49.124;19.190;2022-10-31T01:29:46;75.38;;;26.20;;
46040;SDS011;31779;49.124;19.190;2022-10-31T01:32:14;49.20;;;23.55;;
46040;SDS011;31779;49.124;19.190;2022-10-31T01:34:44;49.08;;;24.00;;
46040;SDS011;31779;49.124;19.190;2022-10-31T01:37:13;60.50;;;24.77;;
46040;SDS011;31779;49.124;19.190;2022-10-31T01:39:40;45.40;;;23.40;;
46040;SDS011;31779;49.124;19.190;2022-10-31T01:42:15;54.60;;;25.98;;
46040;SDS011;31779;49.124;19.190;2022-10-31T01:50:26;52.33;;;23.65;;
46040;SDS011;31779;49.124;19.190;2022-10-31T01:53:18;53.10;;;25.83;;
46040;SDS011;31779;49.124;19.190;2022-10-31T01:56:00;197.60;;;39.47;;
46040;SDS011;31779;49.124;19.190;2022-10-31T01:58:47;98.43;;;27.10;;
46040;SDS011;31779;49.124;19.190;2022-10-31T02:04:30;46.33;;;23.35;;
46040;SDS011;31779;49.124;19.190;2022-10-31T02:07:25;75.40;;;25.67;;
46040;SDS011;31779;49.124;19.190;2022-10-31T02:10:11;57.70;;;23.50;;
46040;SDS011;31779;49.124;19.190;2022-10-31T02:12:41;109.65;;;31.08;;
46040;SDS011;31779;49.124;19.190;2022-10-31T02:15:09;88.68;;;25.90;;
46040;SDS011;31779;49.124;19.190;2022-10-31T02:17:37;123.07;;;33.83;;
46040;SDS011;31779;49.124;19.190;2022-10-31T02:22:44;59.63;;;23.05;;
46040;SDS011;31779;49.124;19.190;2022-10-31T02:39:59;33.17;;;24.48;;
46040;SDS011;31779;49.124;19.190;2022-10-31T02:48:10;35.70;;;22.13;;
46040;SDS011;31779;49.124;19.190;2022-10-31T02:50:45;36.25;;;20.30;;
46040;SDS011;31779;49.124;19.190;2022-10-31T02:53:19;37.13;;;20.80;;
46040;SDS011;31779;49.124;19.190;2022-10-31T02:55:49;24.38;;;19.10;;
46040;SDS011;31779;49.124;19.190;2022-10-31T02:58:24;26.27;;;20.85;;
46040;SDS011;31779;49.124;19.190;2022-10-31T03:01:00;46.88;;;24.48;;
46040;SDS011;31779;49.124;19.190;2022-10-31T03:12:04;31.08;;;23.55;;
46040;SDS011;31779;49.124;19.190;2022-10-31T03:15:00;28.95;;;22.95;;
46040;SDS011;31779;49.124;19.190;2022-10-31T03:17:47;26.73;;;19.10;;
46040;SDS011;31779;49.124;19.190;2022-10-31T03:20:24;37.33;;;21.52;;
46040;SDS011;31779;49.124;19.190;2022-10-31T03:22:57;37.72;;;21.17;;
46040;SDS011;31779;49.124;19.190;2022-10-31T03:25:26;24.80;;;20.47;;
46040;SDS011;31779;49.124;19.190;2022-10-31T03:27:56;20.45;;;18.35;;
46040;SDS011;31779;49.124;19.190;2022-10-31T03:30:28;26.35;;;19.63;;
46040;SDS011;31779;49.124;19.190;2022-10-31T03:33:00;19.83;;;17.70;;
46040;SDS011;31779;49.124;19.190;2022-10-31T03:35:32;27.60;;;21.52;;
46040;SDS011;31779;49.124;19.190;2022-10-31T03:38:02;24.15;;;21.42;;
46040;SDS011;31779;49.124;19.190;2022-10-31T03:40:34;24.35;;;19.77;;
46040;SDS011;31779;49.124;19.190;2022-10-31T03:43:05;20.27;;;17.98;;
46040;SDS011;31779;49.124;19.190;2022-10-31T03:45:41;27.58;;;20.42;;
46040;SDS011;31779;49.124;19.190;2022-10-31T03:48:12;29.45;;;18.73;;
46040;SDS011;31779;49.124;19.190;2022-10-31T03:50:51;26.40;;;19.20;;
46040;SDS011;31779;49.124;19.190;2022-10-31T03:53:34;39.72;;;20.95;;
46040;SDS011;31779;49.124;19.190;2022-10-31T03:59:29;29.75;;;18.48;;
46040;SDS011;31779;49.124;19.190;2022-10-31T04:02:03;26.05;;;19.50;;
46040;SDS011;31779;49.124;19.190;2022-10-31T04:04:36;29.02;;;20.63;;
46040;SDS011;31779;49.124;19.190;2022-10-31T04:07:05;36.55;;;20.70;;
46040;SDS011;31779;49.124;19.190;2022-10-31T04:09:35;29.38;;;19.13;;
46040;SDS011;31779;49.124;19.190;2022-10-31T04:12:06;49.08;;;23.70;;
46040;SDS011;31779;49.124;19.190;2022-10-31T04:14:55;44.03;;;26.00;;
46040;SDS011;31779;49.124;19.190;2022-10-31T04:17:25;32.70;;;23.23;;
46040;SDS011;31779;49.124;19.190;2022-10-31T04:19:58;33.45;;;22.85;;
46040;SDS011;31779;49.124;19.190;2022-10-31T04:22:28;32.53;;;21.75;;
46040;SDS011;31779;49.124;19.190;2022-10-31T04:24:56;41.80;;;23.50;;
46040;SDS011;31779;49.124;19.190;2022-10-31T04:27:23;31.73;;;21.73;;
46040;SDS011;31779;49.124;19.190;2022-10-31T04:29:51;35.70;;;21.77;;
46040;SDS011;31779;49.124;19.190;2022-10-31T04:32:19;32.45;;;23.83;;
46040;SDS011;31779;49.124;19.190;2022-10-31T04:34:47;32.17;;;22.55;;
46040;SDS011;31779;49.124;19.190;2022-10-31T04:37:15;29.00;;;20.27;;
46040;SDS011;31779;49.124;19.190;2022-10-31T04:39:43;36.28;;;21.77;;
46040;SDS011;31779;49.124;19.190;2022-10-31T04:42:36;42.17;;;22.30;;
46040;SDS011;31779;49.124;19.190;2022-10-31T04:45:05;34.08;;;21.35;;
46040;SDS011;31779;49.124;19.190;2022-10-31T04:47:34;16.90;;;14.93;;
46040;SDS011;31779;49.124;19.190;2022-10-31T04:50:02;27.00;;;20.70;;
46040;SDS011;31779;49.124;19.190;2022-10-31T04:52:32;39.90;;;20.02;;
46040;SDS011;31779;49.124;19.190;2022-10-31T04:55:08;22.73;;;17.67;;
46040;SDS011;31779;49.124;19.190;2022-10-31T04:57:55;30.00;;;18.80;;
46040;SDS011;31779;49.124;19.190;2022-10-31T05:00:26;27.45;;;18.33;;
46040;SDS011;31779;49.124;19.190;2022-10-31T05:02:55;27.42;;;19.15;;
46040;SDS011;31779;49.124;19.190;2022-10-31T05:05:27;21.95;;;17.67;;
46040;SDS011;31779;49.124;19.190;2022-10-31T05:07:59;29.85;;;18.98;;
46040;SDS011;31779;49.124;19.190;2022-10-31T05:10:29;34.92;;;23.15;;
46040;SDS011;31779;49.124;19.190;2022-10-31T05:13:00;32.75;;;21.42;;
46040;SDS011;31779;49.124;19.190;2022-10-31T05:15:49;25.33;;;18.02;;
46040;SDS011;31779;49.124;19.190;2022-10-31T05:18:35;28.13;;;18.90;;
46040;SDS011;31779;49.124;19.190;2022-10-31T05:21:26;21.52;;;17.20;;
46040;SDS011;31779;49.124;19.190;2022-10-31T05:23:58;27.75;;;17.35;;
46040;SDS011;31779;49.124;19.190;2022-10-31T05:26:27;27.45;;;19.25;;
46040;SDS011;31779;49.124;19.190;2022-10-31T05:28:55;29.33;;;20.13;;
46040;SDS011;31779;49.124;19.190;2022-10-31T05:31:23;19.75;;;15.38;;
46040;SDS011;31779;49.124;19.190;2022-10-31T05:33:54;26.75;;;18.98;;
46040;SDS011;31779;49.124;19.190;2022-10-31T05:36:42;29.17;;;18.85;;
46040;SDS011;31779;49.124;19.190;2022-10-31T05:39:13;28.55;;;19.38;;
46040;SDS011;31779;49.124;19.190;2022-10-31T05:41:46;28.70;;;20.42;;
46040;SDS011;31779;49.124;19.190;2022-10-31T05:44:19;24.92;;;17.38;;
46040;SDS011;31779;49.124;19.190;2022-10-31T05:47:06;21.73;;;18.45;;
46040;SDS011;31779;49.124;19.190;2022-10-31T05:49:52;26.05;;;18.88;;
46040;SDS011;31779;49.124;19.190;2022-10-31T05:52:35;30.77;;;21.15;;
46040;SDS011;31779;49.124;19.190;2022-10-31T05:55:24;40.40;;;19.98;;
46040;SDS011;31779;49.124;19.190;2022-10-31T05:58:07;26.75;;;19.98;;
46040;SDS011;31779;49.124;19.190;2022-10-31T06:00:36;52.10;;;19.17;;
46040;SDS011;31779;49.124;19.190;2022-10-31T06:03:08;30.55;;;23.23;;
46040;SDS011;31779;49.124;19.190;2022-10-31T06:05:43;25.25;;;18.77;;
46040;SDS011;31779;49.124;19.190;2022-10-31T06:08:20;33.63;;;21.60;;
46040;SDS011;31779;49.124;19.190;2022-10-31T06:10:49;28.65;;;22.05;;
46040;SDS011;31779;49.124;19.190;2022-10-31T06:13:24;31.42;;;21.52;;
46040;SDS011;31779;49.124;19.190;2022-10-31T06:15:59;29.13;;;21.63;;
46040;SDS011;31779;49.124;19.190;2022-10-31T06:18:33;30.75;;;21.15;;
46040;SDS011;31779;49.124;19.190;2022-10-31T06:21:01;52.67;;;24.42;;
46040;SDS011;31779;49.124;19.190;2022-10-31T06:23:29;28.63;;;22.20;;
46040;SDS011;31779;49.124;19.190;2022-10-31T06:26:17;31.90;;;21.58;;
46040;SDS011;31779;49.124;19.190;2022-10-31T06:28:44;28.60;;;20.02;;
46040;SDS011;31779;49.124;19.190;2022-10-31T06:31:24;30.92;;;19.20;;
46040;SDS011;31779;49.124;19.190;2022-10-31T06:33:52;43.35;;;20.80;;
46040;SDS011;31779;49.124;19.190;2022-10-31T06:36:25;26.95;;;17.88;;
46040;SDS011;31779;49.124;19.190;2022-10-31T06:38:53;32.50;;;21.33;;
46040;SDS011;31779;49.124;19.190;2022-10-31T06:41:23;28.23;;;20.52;;
46040;SDS011;31779;49.124;19.190;2022-10-31T06:43:52;31.27;;;22.10;;
46040;SDS011;31779;49.124;19.190;2022-10-31T06:46:46;40.03;;;21.25;;
46040;SDS011;31779;49.124;19.190;2022-10-31T06:49:37;33.60;;;20.40;;
46040;SDS011;31779;49.124;19.190;2022-10-31T06:52:12;32.03;;;22.17;;
46040;SDS011;31779;49.124;19.190;2022-10-31T06:54:46;23.73;;;19.30;;
46040;SDS011;31779;49.124;19.190;2022-10-31T06:57:14;31.67;;;17.50;;
46040;SDS011;31779;49.124;19.190;2022-10-31T06:59:42;24.33;;;19.30;;
46040;SDS011;31779;49.124;19.190;2022-10-31T07:02:17;22.75;;;17.38;;
46040;SDS011;31779;49.124;19.190;2022-10-31T07:04:45;18.35;;;16.00;;
46040;SDS011;31779;49.124;19.190;2022-10-31T07:07:14;25.00;;;17.92;;
46040;SDS011;31779;49.124;19.190;2022-10-31T07:09:42;46.50;;;20.73;;
46040;SDS011;31779;49.124;19.190;2022-10-31T07:12:13;28.20;;;17.67;;
46040;SDS011;31779;49.124;19.190;2022-10-31T07:14:50;26.95;;;18.70;;
46040;SDS011;31779;49.124;19.190;2022-10-31T07:17:22;28.08;;;18.75;;
46040;SDS011;31779;49.124;19.190;2022-10-31T07:19:58;24.33;;;18.60;;
46040;SDS011;31779;49.124;19.190;2022-10-31T07:22:31;19.88;;;17.55;;
46040;SDS011;31779;49.124;19.190;2022-10-31T07:25:04;31.10;;;18.73;;
46040;SDS011;31779;49.124;19.190;2022-10-31T07:27:52;22.98;;;17.10;;
46040;SDS011;31779;49.124;19.190;2022-10-31T07:30:21;42.33;;;19.70;;
46040;SDS011;31779;49.124;19.190;2022-10-31T07:32:53;19.40;;;16.17;;
46040;SDS011;31779;49.124;19.190;2022-10-31T07:35:22;32.03;;;20.80;;
46040;SDS011;31779;49.124;19.190;2022-10-31T07:37:56;32.28;;;23.95;;
46040;SDS011;31779;49.124;19.190;2022-10-31T07:40:25;53.97;;;41.40;;
46040;SDS011;31779;49.124;19.190;2022-10-31T07:42:53;33.92;;;24.20;;
46040;SDS011;31779;49.124;19.190;2022-10-31T07:45:39;22.08;;;19.20;;
46040;SDS011;31779;49.124;19.190;2022-10-31T07:48:31;26.30;;;19.15;;
46040;SDS011;31779;49.124;19.190;2022-10-31T07:51:22;25.17;;;21.00;;
46040;SDS011;31779;49.124;19.190;2022-10-31T07:54:09;21.02;;;18.10;;
46040;SDS011;31779;49.124;19.190;2022-10-31T07:56:38;20.77;;;18.67;;
46040;SDS011;31779;49.124;19.190;2022-10-31T07:59:06;21.33;;;18.95;;
46040;SDS011;31779;49.124;19.190;2022-10-31T08:01:35;28.45;;;19.17;;
46040;SDS011;31779;49.124;19.190;2022-10-31T08:04:23;28.80;;;20.02;;
46040;SDS011;31779;49.124;19.190;2022-10-31T08:07:10;26.70;;;20.30;;
46040;SDS011;31779;49.124;19.190;2022-10-31T08:09:42;30.77;;;22.90;;
46040;SDS011;31779;49.124;19.190;2022-10-31T08:12:18;24.65;;;21.13;;
46040;SDS011;31779;49.124;19.190;2022-10-31T08:14:47;25.83;;;21.58;;
46040;SDS011;31779;49.124;19.190;2022-10-31T08:17:18;25.65;;;20.27;;
46040;SDS011;31779;49.124;19.190;2022-10-31T08:19:53;20.67;;;18.05;;
46040;SDS011;31779;49.124;19.190;2022-10-31T08:22:28;24.05;;;19.25;;
46040;SDS011;31779;49.124;19.190;2022-10-31T08:24:57;21.33;;;17.48;;
46040;SDS011;31779;49.124;19.190;2022-10-31T08:27:25;23.90;;;20.50;;
46040;SDS011;31779;49.124;19.190;2022-10-31T08:32:23;21.08;;;18.17;;
46040;SDS011;31779;49.124;19.190;2022-10-31T08:34:52;23.05;;;20.52;;
46040;SDS011;31779;49.124;19.190;2022-10-31T08:37:38;21.50;;;19.23;;
46040;SDS011;31779;49.124;19.190;2022-10-31T08:40:07;22.75;;;18.65;;
46040;SDS011;31779;49.124;19.190;2022-10-31T08:42:36;19.75;;;17.25;;
46040;SDS011;31779;49.124;19.190;2022-10-31T08:45:05;23.98;;;21.45;;
46040;SDS011;31779;49.124;19.190;2022-10-31T08:47:33;20.85;;;18.23;;
46040;SDS011;31779;49.124;19.190;2022-10-31T08:50:01;22.50;;;19.95;;
46040;SDS011;31779;49.124;19.190;2022-10-31T08:52:30;25.48;;;20.25;;
46040;SDS011;31779;49.124;19.190;2022-10-31T08:55:19;24.77;;;22.15;;
46040;SDS011;31779;49.124;19.190;2022-10-31T08:58:03;22.15;;;18.85;;
46040;SDS011;31779;49.124;19.190;2022-10-31T09:00:41;19.77;;;17.83;;
46040;SDS011;31779;49.124;19.190;2022-10-31T09:03:15;20.90;;;18.63;;
46040;SDS011;31779;49.124;19.190;2022-10-31T09:05:50;22.05;;;18.20;;
46040;SDS011;31779;49.124;19.190;2022-10-31T09:08:22;22.52;;;20.35;;
46040;SDS011;31779;49.124;19.190;2022-10-31T09:10:50;21.30;;;19.13;;
46040;SDS011;31779;49.124;19.190;2022-10-31T09:13:34;19.80;;;17.77;;
46040;SDS011;31779;49.124;19.190;2022-10-31T09:16:26;20.40;;;17.90;;
46040;SDS011;31779;49.124;19.190;2022-10-31T09:18:54;17.85;;;16.15;;
46040;SDS011;31779;49.124;19.190;2022-10-31T09:21:22;19.25;;;17.45;;
46040;SDS011;31779;49.124;19.190;2022-10-31T09:26:20;17.95;;;16.25;;
46040;SDS011;31779;49.124;19.190;2022-10-31T09:29:04;16.08;;;14.43;;
46040;SDS011;31779;49.124;19.190;2022-10-31T09:31:33;15.05;;;13.75;;
46040;SDS011;31779;49.124;19.190;2022-10-31T09:34:08;16.52;;;14.85;;
46040;SDS011;31779;49.124;19.190;2022-10-31T09:36:36;15.18;;;13.63;;
46040;SDS011;31779;49.124;19.190;2022-10-31T09:39:12;15.13;;;13.85;;
46040;SDS011;31779;49.124;19.190;2022-10-31T09:41:52;15.20;;;13.95;;
46040;SDS011;31779;49.124;19.190;2022-10-31T09:50:40;16.17;;;14.85;;
46040;SDS011;31779;49.124;19.190;2022-10-31T09:56:04;15.77;;;14.48;;
46040;SDS011;31779;49.124;19.190;2022-10-31T09:58:38;17.65;;;16.00;;
46040;SDS011;31779;49.124;19.190;2022-10-31T10:01:14;18.27;;;16.73;;
46040;SDS011;31779;49.124;19.190;2022-10-31T10:03:56;18.48;;;16.63;;
46040;SDS011;31779;49.124;19.190;2022-10-31T10:07:29;14.27;;;12.98;;
46040;SDS011;31779;49.124;19.190;2022-10-31T10:10:13;17.20;;;15.70;;
46040;SDS011;31779;49.124;19.190;2022-10-31T10:16:22;18.63;;;16.98;;
46040;SDS011;31779;49.124;19.190;2022-10-31T10:19:04;16.20;;;14.55;;
46040;SDS011;31779;49.124;19.190;2022-10-31T10:21:54;14.90;;;13.48;;
46040;SDS011;31779;49.124;19.190;2022-10-31T10:30:33;15.38;;;13.95;;
46040;SDS011;31779;49.124;19.190;2022-10-31T10:33:15;18.13;;;16.42;;
46040;SDS011;31779;49.124;19.190;2022-10-31T10:35:59;24.05;;;22.17;;
46040;SDS011;31779;49.124;19.190;2022-10-31T10:41:19;13.30;;;12.30;;
46040;SDS011;31779;49.124;19.190;2022-10-31T10:43:59;15.85;;;14.05;;
46040;SDS011;31779;49.124;19.190;2022-10-31T10:46:43;15.15;;;13.75;;
46040;SDS011;31779;49.124;19.190;2022-10-31T10:49:40;17.77;;;16.27;;
46040;SDS011;31779;49.124;19.190;2022-10-31T10:58:10;19.15;;;17.35;;
46040;SDS011;31779;49.124;19.190;2022-10-31T11:00:45;15.85;;;14.45;;
46040;SDS011;31779;49.124;19.190;2022-10-31T11:03:16;18.33;;;16.55;;
46040;SDS011;31779;49.124;19.190;2022-10-31T11:08:25;16.73;;;14.68;;
46040;SDS011;31779;49.124;19.190;2022-10-31T11:13:31;16.13;;;14.57;;
46040;SDS011;31779;49.124;19.190;2022-10-31T11:16:07;16.85;;;14.68;;
46040;SDS011;31779;49.124;19.190;2022-10-31T11:18:43;16.60;;;14.90;;
46040;SDS011;31779;49.124;19.190;2022-10-31T11:21:32;16.30;;;14.57;;
46040;SDS011;31779;49.124;19.190;2022-10-31T11:26:39;17.52;;;14.68;;
46040;SDS011;31779;49.124;19.190;2022-10-31T11:29:13;16.48;;;12.27;;
46040;SDS011;31779;49.124;19.190;2022-10-31T11:31:49;14.20;;;12.73;;
46040;SDS011;31779;49.124;19.190;2022-10-31T11:34:34;18.55;;;15.23;;
46040;SDS011;31779;49.124;19.190;2022-10-31T11:37:12;12.93;;;11.65;;
46040;SDS011;31779;49.124;19.190;2022-10-31T11:39:53;14.32;;;12.90;;
46040;SDS011;31779;49.124;19.190;2022-10-31T11:42:26;14.32;;;12.82;;
46040;SDS011;31779;49.124;19.190;2022-10-31T11:45:05;15.82;;;14.23;;
46040;SDS011;31779;49.124;19.190;2022-10-31T11:47:57;17.70;;;15.98;;
46040;SDS011;31779;49.124;19.190;2022-10-31T11:53:11;15.35;;;14.00;;
46040;SDS011;31779;49.124;19.190;2022-10-31T11:55:47;13.02;;;11.82;;
46040;SDS011;31779;49.124;19.190;2022-10-31T11:58:28;16.33;;;14.70;;
46040;SDS011;31779;49.124;19.190;2022-10-31T12:00:56;14.40;;;12.98;;
46040;SDS011;31779;49.124;19.190;2022-10-31T12:06:16;14.93;;;13.45;;
46040;SDS011;31779;49.124;19.190;2022-10-31T12:17:26;16.40;;;14.80;;
46040;SDS011;31779;49.124;19.190;2022-10-31T12:20:19;17.07;;;15.40;;
46040;SDS011;31779;49.124;19.190;2022-10-31T12:23:06;14.65;;;13.30;;
46040;SDS011;31779;49.124;19.190;2022-10-31T12:25:52;17.77;;;16.02;;
46040;SDS011;31779;49.124;19.190;2022-10-31T12:28:43;15.48;;;14.15;;
46040;SDS011;31779;49.124;19.190;2022-10-31T12:45:51;14.70;;;13.20;;
46040;SDS011;31779;49.124;19.190;2022-10-31T12:59:59;24.60;;;15.30;;
46040;SDS011;31779;49.124;19.190;2022-10-31T13:05:48;20.85;;;18.50;;
46040;SDS011;31779;49.124;19.190;2022-10-31T13:08:33;23.60;;;21.52;;
46040;SDS011;31779;49.124;19.190;2022-10-31T13:11:22;32.50;;;21.15;;
46040;SDS011;31779;49.124;19.190;2022-10-31T13:16:39;1999.90;;;999.90;;
46040;SDS011;31779;49.124;19.190;2022-10-31T13:19:17;45.80;;;30.85;;
46040;SDS011;31779;49.124;19.190;2022-10-31T13:27:45;1999.90;;;999.90;;
46040;SDS011;31779;49.124;19.190;2022-10-31T13:30:23;1999.90;;;999.90;;
46040;SDS011;31779;49.124;19.190;2022-10-31T13:35:52;1999.90;;;999.90;;
46040;SDS011;31779;49.124;19.190;2022-10-31T13:38:41;1999.90;;;999.90;;
46040;SDS011;31779;49.124;19.190;2022-10-31T13:44:26;1999.90;;;999.90;;
46040;SDS011;31779;49.124;19.190;2022-10-31T13:47:00;1999.90;;;999.90;;
46040;SDS011;31779;49.124;19.190;2022-10-31T13:54:43;37.45;;;34.33;;
46040;SDS011;31779;49.124;19.190;2022-10-31T14:00:22;17.63;;;15.50;;
46040;SDS011;31779;49.124;19.190;2022-10-31T14:02:53;20.00;;;18.15;;
46040;SDS011;31779;49.124;19.190;2022-10-31T14:05:25;20.60;;;16.45;;
46040;SDS011;31779;49.124;19.190;2022-10-31T14:07:59;26.50;;;17.90;;
46040;SDS011;31779;49.124;19.190;2022-10-31T14:10:32;19.42;;;15.43;;
46040;SDS011;31779;49.124;19.190;2022-10-31T14:15:33;19.02;;;15.05;;
46040;SDS011;31779;49.124;19.190;2022-10-31T14:18:03;25.25;;;19.88;;
46040;SDS011;31779;49.124;19.190;2022-10-31T14:20:39;28.60;;;21.10;;
46040;SDS011;31779;49.124;19.190;2022-10-31T14:25:40;29.45;;;23.60;;
46040;SDS011;31779;49.124;19.190;2022-10-31T14:28:21;21.83;;;15.98;;
46040;SDS011;31779;49.124;19.190;2022-10-31T14:31:00;20.70;;;14.77;;
46040;SDS011;31779;49.124;19.190;2022-10-31T14:33:29;18.83;;;14.50;;
46040;SDS011;31779;49.124;19.190;2022-10-31T14:36:16;23.75;;;15.25;;
46040;SDS011;31779;49.124;19.190;2022-10-31T14:47:07;27.98;;;17.17;;
46040;SDS011;31779;49.124;19.190;2022-10-31T14:52:32;22.30;;;18.08;;
46040;SDS011;31779;49.124;19.190;2022-10-31T14:55:05;21.02;;;17.58;;
46040;SDS011;31779;49.124;19.190;2022-10-31T14:57:38;23.38;;;17.60;;
46040;SDS011;31779;49.124;19.190;2022-10-31T15:00:20;33.75;;;27.67;;
46040;SDS011;31779;49.124;19.190;2022-10-31T15:05:42;30.77;;;22.08;;
46040;SDS011;31779;49.124;19.190;2022-10-31T15:08:29;25.50;;;21.05;;
46040;SDS011;31779;49.124;19.190;2022-10-31T15:13:52;24.77;;;20.40;;
46040;SDS011;31779;49.124;19.190;2022-10-31T15:16:55;36.00;;;25.67;;
46040;SDS011;31779;49.124;19.190;2022-10-31T15:19:18;31.17;;;24.75;;
46040;SDS011;31779;49.124;19.190;2022-10-31T15:21:50;35.38;;;22.77;;
46040;SDS011;31779;49.124;19.190;2022-10-31T15:24:22;28.42;;;23.15;;
46040;SDS011;31779;49.124;19.190;2022-10-31T15:26:54;66.50;;;49.92;;
46040;SDS011;31779;49.124;19.190;2022-10-31T15:29:31;37.45;;;27.83;;
46040;SDS011;31779;49.124;19.190;2022-10-31T15:32:00;28.30;;;22.50;;
46040;SDS011;31779;49.124;19.190;2022-10-31T15:34:42;50.03;;;32.97;;
46040;SDS011;31779;49.124;19.190;2022-10-31T15:37:15;42.35;;;32.10;;
46040;SDS011;31779;49.124;19.190;2022-10-31T15:39:45;42.80;;;32.38;;
46040;SDS011;31779;49.124;19.190;2022-10-31T15:42:19;58.75;;;43.28;;
46040;SDS011;31779;49.124;19.190;2022-10-31T15:44:59;56.72;;;39.50;;
46040;SDS011;31779;49.124;19.190;2022-10-31T15:47:38;54.92;;;38.22;;
46040;SDS011;31779;49.124;19.190;2022-10-31T15:50:47;51.97;;;40.58;;
46040;SDS011;31779;49.124;19.190;2022-10-31T15:53:22;55.10;;;42.22;;
46040;SDS011;31779;49.124;19.190;2022-10-31T15:56:02;38.60;;;27.38;;
46040;SDS011;31779;49.124;19.190;2022-10-31T15:58:42;35.53;;;24.98;;
46040;SDS011;31779;49.124;19.190;2022-10-31T16:01:20;40.38;;;29.25;;
46040;SDS011;31779;49.124;19.190;2022-10-31T16:03:57;31.80;;;24.58;;
46040;SDS011;31779;49.124;19.190;2022-10-31T16:06:30;40.20;;;31.55;;
46040;SDS011;31779;49.124;19.190;2022-10-31T16:09:01;49.42;;;34.85;;
46040;SDS011;31779;49.124;19.190;2022-10-31T16:11:37;37.25;;;28.77;;
46040;SDS011;31779;49.124;19.190;2022-10-31T16:14:07;36.10;;;26.23;;
46040;SDS011;31779;49.124;19.190;2022-10-31T16:16:52;37.05;;;27.10;;
46040;SDS011;31779;49.124;19.190;2022-10-31T16:27:47;49.78;;;36.67;;
46040;SDS011;31779;49.124;19.190;2022-10-31T16:30:29;53.65;;;38.08;;
46040;SDS011;31779;49.124;19.190;2022-10-31T16:33:25;73.88;;;54.50;;
46040;SDS011;31779;49.124;19.190;2022-10-31T16:35:58;62.08;;;48.47;;
46040;SDS011;31779;49.124;19.190;2022-10-31T16:38:51;68.40;;;51.40;;
46040;SDS011;31779;49.124;19.190;2022-10-31T16:41:19;69.40;;;49.83;;
46040;SDS011;31779;49.124;19.190;2022-10-31T16:43:49;70.43;;;51.72;;
46040;SDS011;31779;49.124;19.190;2022-10-31T16:46:21;94.25;;;71.70;;
46040;SDS011;31779;49.124;19.190;2022-10-31T16:48:51;91.03;;;65.95;;
46040;SDS011;31779;49.124;19.190;2022-10-31T16:51:21;80.25;;;61.92;;
46040;SDS011;31779;49.124;19.190;2022-10-31T16:53:51;58.42;;;43.10;;
46040;SDS011;31779;49.124;19.190;2022-10-31T16:56:26;64.78;;;48.55;;
46040;SDS011;31779;49.124;19.190;2022-10-31T16:58:57;69.70;;;50.10;;
46040;SDS011;31779;49.124;19.190;2022-10-31T17:01:27;66.78;;;51.67;;
46040;SDS011;31779;49.124;19.190;2022-10-31T17:03:56;62.20;;;45.15;;
46040;SDS011;31779;49.124;19.190;2022-10-31T17:06:24;64.70;;;48.58;;
46040;SDS011;31779;49.124;19.190;2022-10-31T17:08:54;67.55;;;53.40;;
46040;SDS011;31779;49.124;19.190;2022-10-31T17:11:23;82.38;;;65.95;;
46040;SDS011;31779;49.124;19.190;2022-10-31T17:13:54;94.00;;;73.68;;
46040;SDS011;31779;49.124;19.190;2022-10-31T17:16:23;85.55;;;68.38;;
46040;SDS011;31779;49.124;19.190;2022-10-31T17:18:51;112.80;;;91.50;;
46040;SDS011;31779;49.124;19.190;2022-10-31T17:21:23;118.57;;;90.00;;
46040;SDS011;31779;49.124;19.190;2022-10-31T17:23:54;130.50;;;99.57;;
46040;SDS011;31779;49.124;19.190;2022-10-31T17:26:23;141.10;;;101.90;;
46040;SDS011;31779;49.124;19.190;2022-10-31T17:28:50;161.15;;;113.53;;
46040;SDS011;31779;49.124;19.190;2022-10-31T17:31:20;193.77;;;116.45;;
46040;SDS011;31779;49.124;19.190;2022-10-31T17:33:56;724.40;;;513.67;;
46040;SDS011;31779;49.124;19.190;2022-10-31T17:36:29;943.75;;;650.00;;
46040;SDS011;31779;49.124;19.190;2022-10-31T17:38:59;283.17;;;173.13;;
46040;SDS011;31779;49.124;19.190;2022-10-31T17:41:28;233.02;;;117.28;;
46040;SDS011;31779;49.124;19.190;2022-10-31T17:43:57;128.77;;;86.63;;
46040;SDS011;31779;49.124;19.190;2022-10-31T17:46:27;140.40;;;99.70;;
46040;SDS011;31779;49.124;19.190;2022-10-31T17:48:55;112.78;;;90.10;;
46040;SDS011;31779;49.124;19.190;2022-10-31T17:51:24;97.90;;;73.40;;